createdAt,value
2023-06-11T00:02:02.483Z,99259.34
2023-06-11T00:04:35.962Z,99257.06
2023-06-11T00:07:09.166Z,99255.22
2023-06-11T00:09:48.029Z,99246.88
2023-06-11T00:12:25.460Z,99250.63
2023-06-11T00:15:03.397Z,99244.94
2023-06-11T00:17:34.652Z,99259.25
2023-06-11T00:20:11.137Z,99251.78
2023-06-11T00:22:45.132Z,99260.09
2023-06-11T00:25:15.080Z,99261.25
2023-06-11T00:27:51.153Z,99261.38
2023-06-11T00:30:21.854Z,99270.72
2023-06-11T00:32:59.332Z,99268.63
2023-06-11T00:35:30.053Z,99282.44
2023-06-11T00:37:59.029Z,99272.38
2023-06-11T00:40:28.621Z,99272.38
2023-06-11T00:43:00.588Z,99289.41
2023-06-11T00:45:34.056Z,99276.47
2023-06-11T00:48:05.634Z,99276.13
2023-06-11T00:50:46.570Z,99267.88
2023-06-11T00:53:18.678Z,99278.38
2023-06-11T00:55:50.864Z,99278.78
2023-06-11T00:58:23.263Z,99275.63
2023-06-11T01:00:58.996Z,99276.38
2023-06-11T01:03:29.054Z,99279.88
2023-06-11T01:06:05.489Z,99276.16
2023-06-11T01:08:40.141Z,99275.78
2023-06-11T01:11:15.069Z,99279.13
2023-06-11T01:13:50.304Z,99283.38
2023-06-11T01:16:29.393Z,99281.16
2023-06-11T01:19:22.487Z,99284.34
2023-06-11T01:22:00.364Z,99284.41
2023-06-11T01:24:48.620Z,99284.41
2023-06-11T01:27:24.495Z,99286.25
2023-06-11T01:30:03.914Z,99287.16
2023-06-11T01:32:39.468Z,99285.66
2023-06-11T01:35:11.266Z,99289.09
2023-06-11T01:37:56.638Z,99292.28
2023-06-11T01:40:34.041Z,99291.53
2023-06-11T01:43:04.626Z,99293.72
2023-06-11T01:45:38.349Z,99290.72
2023-06-11T01:48:09.748Z,99294.69
2023-06-11T01:50:42.937Z,99290.72
2023-06-11T01:53:21.974Z,99294.31
2023-06-11T01:55:51.416Z,99297.06
2023-06-11T01:58:19.850Z,99292.56
2023-06-11T02:00:52.688Z,99290.53
2023-06-11T02:03:22.389Z,99302.13
2023-06-11T02:05:52.831Z,99301.56
2023-06-11T02:08:21.852Z,99299.63
2023-06-11T02:10:52.995Z,99301.44
2023-06-11T02:13:21.025Z,99304.13
2023-06-11T02:16:01.750Z,99301.22
2023-06-11T02:18:33.903Z,99308.47
2023-06-11T02:21:02.055Z,99315.72
2023-06-11T02:23:31.776Z,99309.13
2023-06-11T02:26:00.279Z,99317.44
2023-06-11T02:28:35.719Z,99313.41
2023-06-11T02:31:14.064Z,99314.47
2023-06-11T02:33:43.676Z,99317.69
2023-06-11T02:36:13.588Z,99323.63
2023-06-11T02:38:50.845Z,99325.50
2023-06-11T02:41:19.869Z,99318.97
2023-06-11T02:43:57.590Z,99316.38
2023-06-11T02:46:29.546Z,99316.63
2023-06-11T02:49:02.387Z,99326.25
2023-06-11T02:51:31.112Z,99323.41
2023-06-11T02:53:59.341Z,99323.00
2023-06-11T02:56:27.795Z,99320.59
2023-06-11T02:58:59.378Z,99324.94
2023-06-11T03:01:31.804Z,99319.53
2023-06-11T03:04:01.087Z,99320.00
2023-06-11T03:06:33.001Z,99325.06
2023-06-11T03:09:16.028Z,99327.44
2023-06-11T03:11:50.418Z,99331.31
2023-06-11T03:14:20.746Z,99341.75
2023-06-11T03:16:52.718Z,99331.97
2023-06-11T03:19:22.321Z,99335.53
2023-06-11T03:21:55.096Z,99344.75
2023-06-11T03:24:25.897Z,99342.03
2023-06-11T03:27:00.937Z,99323.84
2023-06-11T03:29:32.177Z,99341.66
2023-06-11T03:32:05.202Z,99327.81
2023-06-11T03:34:34.925Z,99344.28
2023-06-11T03:37:05.682Z,99324.38
2023-06-11T03:39:35.018Z,99343.81
2023-06-11T03:42:07.256Z,99327.91
2023-06-11T03:44:37.179Z,99342.13
2023-06-11T03:47:14.033Z,99349.34
2023-06-11T03:49:44.033Z,99340.72
2023-06-11T03:52:13.736Z,99344.38
2023-06-11T03:54:42.204Z,99342.28
2023-06-11T03:57:11.426Z,99350.13
2023-06-11T03:59:41.028Z,99345.06
2023-06-11T04:02:20.772Z,99346.00
2023-06-11T04:04:58.512Z,99350.94
2023-06-11T04:07:29.305Z,99355.84
2023-06-11T04:09:58.542Z,99355.50
2023-06-11T04:12:32.370Z,99340.16
2023-06-11T04:15:06.636Z,99367.78
2023-06-11T04:17:37.643Z,99365.72
2023-06-11T04:20:08.926Z,99358.38
2023-06-11T04:22:40.965Z,99359.44
2023-06-11T04:25:12.959Z,99361.88
2023-06-11T04:27:44.470Z,99356.28
2023-06-11T04:30:15.143Z,99365.94
2023-06-11T04:33:04.957Z,99364.31
2023-06-11T04:35:43.036Z,99366.72
2023-06-11T04:38:21.208Z,99376.84
2023-06-11T04:40:55.683Z,99374.13
2023-06-11T04:43:32.178Z,99377.47
2023-06-11T04:46:01.998Z,99386.88
2023-06-11T04:48:51.817Z,99379.91
2023-06-11T04:51:21.696Z,99366.50
2023-06-11T04:53:58.622Z,99388.59
2023-06-11T04:56:28.357Z,99372.22
2023-06-11T04:58:59.255Z,99379.88
2023-06-11T05:01:33.322Z,99396.84
2023-06-11T05:04:12.044Z,99376.03
2023-06-11T05:06:45.883Z,99380.56
2023-06-11T05:09:36.708Z,99377.59
2023-06-11T05:12:13.719Z,99391.72
2023-06-11T05:14:51.965Z,99386.69
2023-06-11T05:17:22.534Z,99399.03
2023-06-11T05:20:07.409Z,99386.00
2023-06-11T05:22:39.258Z,99384.63
2023-06-11T05:25:11.340Z,99395.56
2023-06-11T05:27:51.003Z,99392.28
2023-06-11T05:30:25.656Z,99392.41
2023-06-11T05:32:59.002Z,99400.28
2023-06-11T05:35:32.895Z,99395.25
2023-06-11T05:38:05.088Z,99394.59
2023-06-11T05:40:37.787Z,99400.09
2023-06-11T05:43:07.806Z,99400.47
2023-06-11T05:45:45.726Z,99408.28
2023-06-11T05:48:16.493Z,99410.22
2023-06-11T05:50:56.121Z,99399.72
2023-06-11T05:53:28.445Z,99407.72
2023-06-11T05:56:04.945Z,99397.22
2023-06-11T05:58:38.235Z,99411.06
2023-06-11T06:01:10.152Z,99401.50
2023-06-11T06:03:43.247Z,99412.31
2023-06-11T06:06:13.788Z,99402.09
2023-06-11T06:08:48.701Z,99411.97
2023-06-11T06:11:23.264Z,99413.97
2023-06-11T06:13:57.676Z,99413.50
2023-06-11T06:16:28.871Z,99429.13
2023-06-11T06:19:09.027Z,99419.97
2023-06-11T06:21:50.140Z,99432.06
2023-06-11T06:24:21.995Z,99432.44
2023-06-11T06:26:53.014Z,99436.63
2023-06-11T06:29:22.116Z,99435.63
2023-06-11T06:31:52.096Z,99433.88
2023-06-11T06:34:21.570Z,99430.16
2023-06-11T06:36:56.258Z,99430.66
2023-06-11T06:39:26.382Z,99435.19
2023-06-11T06:42:04.045Z,99427.31
2023-06-11T06:44:56.436Z,99435.59
2023-06-11T06:47:29.873Z,99424.94
2023-06-11T06:50:20.036Z,99441.25
2023-06-11T06:53:00.747Z,99452.06
2023-06-11T06:55:29.937Z,99434.88
2023-06-11T06:58:20.636Z,99443.00
2023-06-11T07:00:50.039Z,99454.88
2023-06-11T07:03:19.921Z,99445.56
2023-06-11T07:05:51.845Z,99441.22
2023-06-11T07:08:22.245Z,99443.28
2023-06-11T07:10:56.565Z,99439.91
2023-06-11T07:13:34.225Z,99443.50
2023-06-11T07:16:06.680Z,99457.50
2023-06-11T07:18:37.437Z,99450.69
2023-06-11T07:21:08.051Z,99451.19
2023-06-11T07:23:39.024Z,99448.81
2023-06-11T07:26:20.733Z,99454.97
2023-06-11T07:28:49.610Z,99442.16
2023-06-11T07:31:19.981Z,99450.66
2023-06-11T07:33:59.731Z,99459.75
2023-06-11T07:36:29.126Z,99452.97
2023-06-11T07:39:01.357Z,99459.97
2023-06-11T07:41:30.630Z,99461.59
2023-06-11T07:44:01.460Z,99458.69
2023-06-11T07:46:30.800Z,99455.75
2023-06-11T07:49:00.265Z,99461.25
2023-06-11T07:51:28.407Z,99465.69
2023-06-11T07:54:10.796Z,99461.25
2023-06-11T07:56:44.020Z,99460.88
2023-06-11T07:59:20.315Z,99458.69
2023-06-11T08:01:50.609Z,99457.69
2023-06-11T08:04:20.756Z,99454.78
2023-06-11T08:06:50.857Z,99467.59
2023-06-11T08:09:30.707Z,99465.13
2023-06-11T08:12:00.668Z,99462.69
2023-06-11T08:14:30.718Z,99475.06
2023-06-11T08:17:02.256Z,99473.25
2023-06-11T08:19:31.697Z,99469.97
2023-06-11T08:22:02.993Z,99460.34
2023-06-11T08:24:35.349Z,99478.47
2023-06-11T08:27:15.289Z,99471.88
2023-06-11T08:29:46.289Z,99462.28
2023-06-11T08:32:16.971Z,99480.28
2023-06-11T08:34:46.104Z,99472.50
2023-06-11T08:37:16.481Z,99471.59
2023-06-11T08:39:50.965Z,99472.28
2023-06-11T08:42:30.800Z,99464.16
2023-06-11T08:45:07.446Z,99471.66
2023-06-11T08:47:40.313Z,99468.31
2023-06-11T08:50:12.089Z,99469.31
2023-06-11T08:52:44.426Z,99469.13
2023-06-11T08:55:20.129Z,99474.97
2023-06-11T08:57:48.959Z,99470.56
2023-06-11T09:00:24.632Z,99482.41
2023-06-11T09:02:53.953Z,99485.06
2023-06-11T09:05:25.860Z,99487.69
2023-06-11T09:07:57.066Z,99485.84
2023-06-11T09:10:50.169Z,99480.00
2023-06-11T09:13:21.427Z,99476.88
2023-06-11T09:15:56.005Z,99487.13
2023-06-11T09:18:27.348Z,99481.91
2023-06-11T09:21:01.604Z,99480.41
2023-06-11T09:23:36.866Z,99479.94
2023-06-11T09:26:10.310Z,99470.81
2023-06-11T09:28:50.539Z,99483.19
2023-06-11T09:31:22.913Z,99485.53
2023-06-11T09:33:57.843Z,99484.50
2023-06-11T09:36:33.163Z,99489.94
2023-06-11T09:39:02.337Z,99491.72
2023-06-11T09:41:50.799Z,99480.75
2023-06-11T09:44:28.551Z,99490.13
2023-06-11T09:46:58.046Z,99483.69
2023-06-11T09:49:27.994Z,99481.88
2023-06-11T09:51:59.264Z,99498.72
2023-06-11T09:54:27.654Z,99491.91
2023-06-11T09:57:06.911Z,99500.25
2023-06-11T09:59:39.294Z,99506.13
2023-06-11T10:02:09.654Z,99488.00
2023-06-11T10:04:42.189Z,99495.09
2023-06-11T10:07:22.310Z,99491.50
2023-06-11T10:09:53.864Z,99494.84
2023-06-11T10:12:25.719Z,99503.81
2023-06-11T10:14:58.051Z,99502.78
2023-06-11T10:17:27.587Z,99499.66
2023-06-11T10:20:01.034Z,99503.22
2023-06-11T10:22:35.521Z,99498.63
2023-06-11T10:25:06.413Z,99491.22
2023-06-11T10:27:41.575Z,99512.41
2023-06-11T10:30:19.221Z,99500.13
2023-06-11T10:32:55.105Z,99505.91
2023-06-11T10:35:30.234Z,99507.19
2023-06-11T10:38:10.545Z,99511.13
2023-06-11T10:40:40.667Z,99503.81
2023-06-11T10:43:29.349Z,99507.34
2023-06-11T10:46:05.157Z,99501.16
2023-06-11T10:48:34.777Z,99508.81
2023-06-11T10:51:07.021Z,99517.16
2023-06-11T10:53:45.988Z,99507.59
2023-06-11T10:56:18.547Z,99498.84
2023-06-11T10:58:56.250Z,99506.53
2023-06-11T11:01:24.616Z,99512.63
2023-06-11T11:04:03.604Z,99511.34
2023-06-11T11:06:40.621Z,99500.91
2023-06-11T11:09:12.931Z,99507.19
2023-06-11T11:11:44.659Z,99500.31
2023-06-11T11:14:19.074Z,99486.53
2023-06-11T11:16:50.056Z,99500.06
2023-06-11T11:19:28.664Z,99499.69
2023-06-11T11:22:04.958Z,99495.13
2023-06-11T11:24:39.840Z,99489.69
2023-06-11T11:27:14.669Z,99488.63
2023-06-11T11:29:55.854Z,99491.16
2023-06-11T11:32:24.774Z,99487.41
2023-06-11T11:34:54.829Z,99500.16
2023-06-11T11:37:24.015Z,99499.91
2023-06-11T11:39:55.215Z,99497.22
2023-06-11T11:42:34.888Z,99493.50
2023-06-11T11:45:15.735Z,99486.16
2023-06-11T11:47:47.664Z,99487.00
2023-06-11T11:50:34.875Z,99505.38
2023-06-11T11:53:07.624Z,99490.34
2023-06-11T11:55:47.921Z,99480.94
2023-06-11T11:58:29.304Z,99478.47
2023-06-11T12:00:59.161Z,99470.94
2023-06-11T12:03:38.390Z,99478.88
2023-06-11T12:06:16.098Z,99476.78
2023-06-11T12:08:47.660Z,99471.31
2023-06-11T12:11:19.019Z,99474.06
2023-06-11T12:13:55.955Z,99465.50
2023-06-11T12:16:27.534Z,99465.09
2023-06-11T12:19:10.592Z,99470.72
2023-06-11T12:21:49.061Z,99467.81
2023-06-11T12:24:20.585Z,99464.66
2023-06-11T12:26:55.163Z,99457.59
2023-06-11T12:29:26.871Z,99449.84
2023-06-11T12:31:59.213Z,99460.25
2023-06-11T12:34:34.643Z,99472.31
2023-06-11T12:37:09.369Z,99454.78
2023-06-11T12:39:44.692Z,99447.41
2023-06-11T12:42:23.325Z,99459.75
2023-06-11T12:44:54.315Z,99468.81
2023-06-11T12:47:26.197Z,99475.28
2023-06-11T12:49:58.048Z,99474.59
2023-06-11T12:52:32.363Z,99459.72
2023-06-11T12:55:10.263Z,99456.38
2023-06-11T12:57:38.787Z,99461.38
2023-06-11T13:00:17.227Z,99459.78
2023-06-11T13:02:49.862Z,99468.97
2023-06-11T13:05:22.845Z,99461.28
2023-06-11T13:07:55.333Z,99453.00
2023-06-11T13:10:28.118Z,99448.19
2023-06-11T13:12:59.414Z,99461.75
2023-06-11T13:15:28.695Z,99455.91
2023-06-11T13:18:08.391Z,99445.84
2023-06-11T13:20:46.485Z,99448.34
2023-06-11T13:23:27.470Z,99445.63
2023-06-11T13:25:59.485Z,99441.06
2023-06-11T13:28:30.259Z,99459.94
2023-06-11T13:31:01.776Z,99450.38
2023-06-11T13:33:40.247Z,99454.03
2023-06-11T13:36:13.407Z,99451.63
2023-06-11T13:38:43.696Z,99456.22
2023-06-11T13:41:15.728Z,99448.44
2023-06-11T13:43:50.180Z,99446.34
2023-06-11T13:46:21.448Z,99451.66
2023-06-11T13:49:00.085Z,99445.34
2023-06-11T13:51:31.944Z,99444.16
2023-06-11T13:54:08.164Z,99444.56
2023-06-11T13:56:37.842Z,99446.88
2023-06-11T13:59:06.884Z,99441.13
2023-06-11T14:01:43.022Z,99442.84
2023-06-11T14:04:14.336Z,99437.59
2023-06-11T14:06:47.517Z,99445.13
2023-06-11T14:09:21.742Z,99453.19
2023-06-11T14:11:51.137Z,99433.59
2023-06-11T14:14:29.008Z,99443.13
2023-06-11T14:16:59.975Z,99444.34
2023-06-11T14:19:30.429Z,99450.00
2023-06-11T14:22:02.250Z,99437.31
2023-06-11T14:24:33.543Z,99433.25
2023-06-11T14:27:03.250Z,99445.34
2023-06-11T14:29:35.733Z,99444.16
2023-06-11T14:32:07.653Z,99444.06
2023-06-11T14:34:41.902Z,99443.72
2023-06-11T14:37:20.209Z,99445.25
2023-06-11T14:39:52.157Z,99432.88
2023-06-11T14:42:24.239Z,99436.72
2023-06-11T14:44:58.419Z,99431.47
2023-06-11T14:47:32.978Z,99441.06
2023-06-11T14:50:14.590Z,99424.38
2023-06-11T14:52:48.466Z,99429.25
2023-06-11T14:55:20.467Z,99426.53
2023-06-11T14:57:53.064Z,99424.28
2023-06-11T15:00:22.971Z,99416.47
2023-06-11T15:02:54.356Z,99424.38
2023-06-11T15:05:37.694Z,99417.88
2023-06-11T15:08:08.778Z,99412.31
2023-06-11T15:10:42.776Z,99396.97
2023-06-11T15:13:14.335Z,99410.69
2023-06-11T15:15:51.660Z,99407.50
2023-06-11T15:18:22.583Z,99414.00
2023-06-11T15:21:21.806Z,99412.66
2023-06-11T15:24:01.746Z,99396.25
2023-06-11T15:26:33.736Z,99411.31
2023-06-11T15:29:10.914Z,99409.03
2023-06-11T15:31:41.088Z,99413.53
2023-06-11T15:34:14.094Z,99402.78
2023-06-11T15:36:56.867Z,99413.22
2023-06-11T15:39:27.751Z,99421.00
2023-06-11T15:42:07.001Z,99422.16
2023-06-11T15:44:37.815Z,99412.00
2023-06-11T15:47:17.702Z,99410.94
2023-06-11T15:49:56.237Z,99419.44
2023-06-11T15:52:34.064Z,99415.50
2023-06-11T15:55:03.745Z,99408.81
2023-06-11T15:57:33.191Z,99414.81
2023-06-11T16:00:05.214Z,99405.72
2023-06-11T16:02:44.239Z,99416.94
2023-06-11T16:05:20.207Z,99406.44
2023-06-11T16:07:51.000Z,99426.59
2023-06-11T16:10:34.746Z,99406.06
2023-06-11T16:13:08.865Z,99405.44
2023-06-11T16:15:47.742Z,99407.56
2023-06-11T16:18:22.996Z,99408.28
2023-06-11T16:21:02.649Z,99402.56
2023-06-11T16:23:48.033Z,99420.31
2023-06-11T16:26:17.644Z,99415.59
2023-06-11T16:29:00.132Z,99417.50
2023-06-11T16:31:30.443Z,99433.19
2023-06-11T16:34:05.154Z,99418.38
2023-06-11T16:36:35.182Z,99412.25
2023-06-11T16:39:25.374Z,99417.88
2023-06-11T16:41:57.563Z,99428.38
2023-06-11T16:44:49.283Z,99425.78
2023-06-11T16:47:32.014Z,99405.28
2023-06-11T16:50:04.180Z,99425.69
2023-06-11T16:52:38.368Z,99419.31
2023-06-11T16:55:13.523Z,99422.94
2023-06-11T16:57:45.104Z,99416.66
2023-06-11T17:00:19.523Z,99428.31
2023-06-11T17:02:51.202Z,99426.88
2023-06-11T17:05:29.384Z,99430.19
2023-06-11T17:08:01.611Z,99425.97
2023-06-11T17:10:37.531Z,99432.63
2023-06-11T17:13:06.495Z,99428.97
2023-06-11T17:15:40.264Z,99437.97
2023-06-11T17:18:17.167Z,99424.72
2023-06-11T17:20:52.008Z,99430.16
2023-06-11T17:23:25.887Z,99430.41
2023-06-11T17:26:10.691Z,99429.81
2023-06-11T17:28:42.514Z,99436.66
2023-06-11T17:31:14.254Z,99434.16
2023-06-11T17:33:49.623Z,99430.44
2023-06-11T17:36:24.621Z,99436.66
2023-06-11T17:39:03.931Z,99431.88
2023-06-11T17:41:43.394Z,99436.72
2023-06-11T17:44:21.168Z,99432.97
2023-06-11T17:46:50.595Z,99446.94
2023-06-11T17:49:21.253Z,99440.69
2023-06-11T17:51:54.173Z,99440.97
2023-06-11T17:54:23.264Z,99449.06
2023-06-11T17:57:00.233Z,99439.56
2023-06-11T17:59:40.559Z,99441.22
2023-06-11T18:02:11.126Z,99452.06
2023-06-11T18:04:40.920Z,99454.56
2023-06-11T18:07:12.502Z,99456.94
2023-06-11T18:09:42.778Z,99442.06
2023-06-11T18:12:24.978Z,99452.41
2023-06-11T18:14:57.766Z,99453.72
2023-06-11T18:17:28.200Z,99447.81
2023-06-11T18:19:59.130Z,99447.88
2023-06-11T18:22:30.805Z,99450.47
2023-06-11T18:25:00.258Z,99452.38
2023-06-11T18:27:50.882Z,99453.38
2023-06-11T18:30:24.635Z,99438.03
2023-06-11T18:32:57.772Z,99437.84
2023-06-11T18:35:27.906Z,99449.97
2023-06-11T18:37:58.177Z,99447.19
2023-06-11T18:40:31.736Z,99450.19
2023-06-11T18:43:07.106Z,99455.19
2023-06-11T18:48:21.433Z,99457.63
2023-06-11T18:50:52.477Z,99453.91
2023-06-11T18:53:25.594Z,99462.50
2023-06-11T18:55:54.984Z,99449.97
2023-06-11T18:58:25.302Z,99443.69
2023-06-11T19:00:58.345Z,99463.28
2023-06-11T19:03:39.310Z,99460.00
2023-06-11T19:06:13.055Z,99459.44
2023-06-11T19:09:01.730Z,99462.28
2023-06-11T19:11:31.367Z,99468.22
2023-06-11T19:14:14.348Z,99473.66
2023-06-11T19:16:50.045Z,99466.50
2023-06-11T19:19:20.096Z,99483.66
2023-06-11T19:21:57.519Z,99480.16
2023-06-11T19:24:32.812Z,99479.78
2023-06-11T19:27:05.363Z,99489.59
2023-06-11T19:29:41.950Z,99488.50
2023-06-11T19:32:20.139Z,99480.38
2023-06-11T19:34:49.118Z,99476.88
2023-06-11T19:37:22.363Z,99493.38
2023-06-11T19:39:56.668Z,99491.31
2023-06-11T19:42:34.243Z,99496.94
2023-06-11T19:45:16.950Z,99492.94
2023-06-11T19:47:49.647Z,99494.66
2023-06-11T19:50:27.609Z,99506.34
2023-06-11T19:53:10.221Z,99497.38
2023-06-11T19:55:42.192Z,99498.66
2023-06-11T19:58:12.322Z,99501.81
2023-06-11T20:00:43.524Z,99510.78
2023-06-11T20:03:20.940Z,99508.47
2023-06-11T20:05:50.227Z,99505.56
2023-06-11T20:08:35.600Z,99504.34
2023-06-11T20:11:10.313Z,99510.16
2023-06-11T20:13:50.268Z,99500.59
2023-06-11T20:16:25.281Z,99506.41
2023-06-11T20:19:07.966Z,99508.91
2023-06-11T20:21:45.752Z,99498.47
2023-06-11T20:24:26.755Z,99514.53
2023-06-11T20:27:00.887Z,99516.03
2023-06-11T20:29:30.968Z,99502.44
2023-06-11T20:32:11.099Z,99505.97
2023-06-11T20:34:42.431Z,99507.66
2023-06-11T20:37:21.326Z,99518.06
2023-06-11T20:39:58.662Z,99518.31
2023-06-11T20:42:31.145Z,99514.75
2023-06-11T20:45:03.715Z,99512.44
2023-06-11T20:47:41.815Z,99512.84
2023-06-11T20:50:12.129Z,99510.13
2023-06-11T20:52:42.133Z,99512.03
2023-06-11T20:55:12.177Z,99497.41
2023-06-11T20:57:41.450Z,99497.66
2023-06-11T21:00:12.248Z,99514.31
2023-06-11T21:02:45.728Z,99516.59
2023-06-11T21:05:20.506Z,99522.44
2023-06-11T21:07:52.314Z,99516.63
2023-06-11T21:10:22.366Z,99516.38
2023-06-11T21:12:55.895Z,99507.19
2023-06-11T21:15:27.451Z,99520.06
2023-06-11T21:18:06.096Z,99511.53
2023-06-11T21:20:39.897Z,99513.22
2023-06-11T21:23:16.246Z,99500.53
2023-06-11T21:25:48.650Z,99512.59
2023-06-11T21:28:24.366Z,99515.09
2023-06-11T21:30:54.170Z,99518.78
2023-06-11T21:33:29.799Z,99511.75
2023-06-11T21:36:01.486Z,99510.00
2023-06-11T21:38:30.969Z,99510.69
2023-06-11T21:41:01.881Z,99511.72
2023-06-11T21:43:31.280Z,99509.34
2023-06-11T21:46:03.051Z,99498.31
2023-06-11T21:48:42.750Z,99505.75
2023-06-11T21:51:12.637Z,99506.84
2023-06-11T21:53:43.356Z,99504.13
2023-06-11T21:56:14.724Z,99496.94
2023-06-11T21:58:52.430Z,99505.16
2023-06-11T22:01:23.346Z,99513.19
2023-06-11T22:04:11.450Z,99496.72
2023-06-11T22:06:46.645Z,99506.09
2023-06-11T22:09:27.474Z,99502.53
2023-06-11T22:11:58.741Z,99504.25
2023-06-11T22:14:28.195Z,99487.97
2023-06-11T22:16:58.910Z,99497.38
2023-06-11T22:19:43.125Z,99510.66
2023-06-11T22:22:14.401Z,99506.44
2023-06-11T22:24:44.138Z,99506.44
2023-06-11T22:27:13.651Z,99509.75
2023-06-11T22:29:52.220Z,99505.50
2023-06-11T22:32:31.253Z,99499.97
2023-06-11T22:35:17.527Z,99500.75
2023-06-11T22:37:52.402Z,99488.91
2023-06-11T22:40:28.922Z,99505.63
2023-06-11T22:42:58.216Z,99507.88
2023-06-11T22:45:35.079Z,99490.09
2023-06-11T22:48:05.627Z,99494.25
2023-06-11T22:50:50.178Z,99492.31
2023-06-11T22:53:20.896Z,99493.59
2023-06-11T22:55:50.614Z,99487.38
2023-06-11T22:58:20.689Z,99504.53
2023-06-11T23:00:58.727Z,99504.34
2023-06-11T23:03:27.747Z,99502.81
2023-06-11T23:06:05.918Z,99514.13
2023-06-11T23:08:36.361Z,99501.00
2023-06-11T23:11:15.031Z,99505.25
2023-06-11T23:13:46.800Z,99487.84
2023-06-11T23:16:21.327Z,99501.84
2023-06-11T23:18:56.656Z,99500.31
2023-06-11T23:21:41.138Z,99493.66
2023-06-11T23:24:11.650Z,99500.72
2023-06-11T23:26:45.315Z,99490.69
2023-06-11T23:29:29.108Z,99495.75
2023-06-11T23:32:03.427Z,99483.34
2023-06-11T23:34:40.275Z,99490.34
2023-06-11T23:37:10.896Z,99488.63
2023-06-11T23:39:40.385Z,99497.75
2023-06-11T23:42:10.026Z,99497.34
2023-06-11T23:44:41.781Z,99496.19
2023-06-11T23:47:22.862Z,99473.59
2023-06-11T23:49:56.870Z,99480.06
2023-06-11T23:52:26.882Z,99482.78
2023-06-11T23:54:57.715Z,99473.78
2023-06-11T23:57:35.159Z,99487.59
